Time;durP1;ratioP1;P1;durP2;ratioP2;P2;SDS_P1;SDS_P2;PMS_P1;PMS_P2;Temp;Humidity;BMP_temperature;BMP_pressure;BME280_temperature;BME280_humidity;BME280_pressure;Samples;Min_cycle;Max_cycle;Signal;HPM_P1;HPM_P2
2021/01/29 00:00:29;;;;;;;8.23;5.53;;;;;;;6.26;100.00;95399.63;5023159;28;20052;-73
2021/01/29 00:02:56;;;;;;;6.88;5.43;;;;;;;6.25;100.00;95385.78;5023122;28;20053;-73
2021/01/29 00:05:28;;;;;;;6.30;4.43;;;;;;;6.24;100.00;95378.22;5021489;28;20044;-73
2021/01/29 00:07:54;;;;;;;4.40;4.00;;;;;;;6.24;100.00;95373.78;5022529;28;20037;-73
2021/01/29 00:10:21;;;;;;;6.55;4.63;;;;;;;6.21;100.00;95361.19;5017268;28;20056;-74
2021/01/29 00:12:47;;;;;;;4.97;4.03;;;;;;;6.20;100.00;95354.41;5030693;28;20042;-73
2021/01/29 00:15:17;;;;;;;4.95;4.20;;;;;;;6.16;100.00;95345.44;5021301;28;20048;-73
2021/01/29 00:17:44;;;;;;;5.13;3.88;;;;;;;6.14;100.00;95347.47;5023818;28;20053;-73
2021/01/29 00:20:14;;;;;;;4.10;3.30;;;;;;;6.13;100.00;95345.06;5023615;28;20056;-73
2021/01/29 00:22:40;;;;;;;4.72;3.40;;;;;;;6.12;100.00;95339.06;5023539;28;20045;-74
2021/01/29 00:25:09;;;;;;;4.25;3.33;;;;;;;6.11;100.00;95337.50;5028958;28;20497;-73
2021/01/29 00:27:40;;;;;;;;;;;;;;;6.08;100.00;95337.91;5024558;28;20056;-73
2021/01/29 00:30:07;;;;;;;4.70;2.90;;;;;;;6.06;100.00;95348.53;5018651;28;19964;-73
2021/01/29 00:32:34;;;;;;;3.60;3.08;;;;;;;6.05;100.00;95348.78;5021564;28;20033;-73
2021/01/29 00:35:00;;;;;;;5.55;3.88;;;;;;;6.04;100.00;95347.16;5023311;28;20041;-73
2021/01/29 00:37:26;;;;;;;4.00;3.20;;;;;;;6.02;100.00;95344.78;5027267;28;20041;-73
2021/01/29 00:39:53;;;;;;;3.22;2.92;;;;;;;6.00;100.00;95338.19;5024039;28;20512;-73
2021/01/29 00:42:19;;;;;;;5.50;3.85;;;;;;;5.98;100.00;95327.22;5009079;28;20052;-73
2021/01/29 00:44:46;;;;;;;4.07;3.60;;;;;;;5.94;100.00;95316.41;5018118;28;20054;-73
2021/01/29 00:47:12;;;;;;;3.70;3.35;;;;;;;5.92;100.00;95315.81;5023757;28;20049;-73
2021/01/29 00:49:38;;;;;;;4.45;3.75;;;;;;;5.90;100.00;95318.66;5022681;28;20030;-73
2021/01/29 00:52:04;;;;;;;6.10;3.80;;;;;;;5.89;100.00;95311.06;5024251;28;20054;-73
2021/01/29 00:54:30;;;;;;;5.55;4.00;;;;;;;5.89;100.00;95313.66;5022870;28;20057;-73
2021/01/29 00:56:56;;;;;;;6.15;3.83;;;;;;;5.89;100.00;95301.44;5025559;28;20478;-73
2021/01/29 00:59:23;;;;;;;5.72;3.92;;;;;;;5.89;100.00;95300.66;5024208;28;20053;-73
2021/01/29 01:01:49;;;;;;;5.25;4.50;;;;;;;5.90;100.00;95295.25;5018341;28;20057;-73
2021/01/29 01:04:15;;;;;;;5.57;3.97;;;;;;;5.92;100.00;95291.59;5028117;28;20041;-73
2021/01/29 01:06:42;;;;;;;5.38;4.47;;;;;;;5.92;100.00;95283.81;5028045;28;20060;-73
2021/01/29 01:09:08;;;;;;;8.35;4.40;;;;;;;5.93;100.00;95278.38;5026670;28;20045;-73
2021/01/29 01:11:35;;;;;;;4.50;3.70;;;;;;;5.92;100.00;95266.38;5024425;28;20033;-73
2021/01/29 01:14:01;;;;;;;6.63;4.30;;;;;;;5.94;100.00;95259.16;5027654;28;20052;-73
2021/01/29 01:16:28;;;;;;;7.45;4.60;;;;;;;5.96;100.00;95258.97;5026950;28;20033;-73
2021/01/29 01:18:55;;;;;;;4.88;3.67;;;;;;;5.98;100.00;95249.13;5023173;28;20493;-73
2021/01/29 01:21:22;;;;;;;7.50;4.85;;;;;;;5.98;100.00;95241.34;5026904;28;20041;-73
2021/01/29 01:23:48;;;;;;;5.88;4.55;;;;;;;5.99;100.00;95238.53;5047109;28;20045;-73
2021/01/29 01:26:14;;;;;;;6.03;4.55;;;;;;;5.98;100.00;95231.72;5026416;28;20047;-73
2021/01/29 01:28:40;;;;;;;5.13;4.07;;;;;;;5.98;100.00;95220.53;5022087;28;20414;-73
2021/01/29 01:31:07;;;;;;;5.68;4.32;;;;;;;5.98;100.00;95216.09;5028590;28;20029;-73
2021/01/29 01:33:33;;;;;;;5.57;4.20;;;;;;;5.98;100.00;95210.09;5027221;28;20041;-73
2021/01/29 01:35:59;;;;;;;4.38;3.90;;;;;;;5.99;100.00;95202.09;5028029;28;20054;-73
2021/01/29 01:38:25;;;;;;;4.78;3.60;;;;;;;6.01;100.00;95204.47;5026801;28;20478;-73
2021/01/29 01:40:52;;;;;;;5.50;3.20;;;;;;;6.02;100.00;95206.06;5022375;28;20045;-73
2021/01/29 01:43:18;;;;;;;5.28;3.20;;;;;;;6.02;100.00;95199.03;5025277;28;20407;-73
2021/01/29 01:45:47;;;;;;;6.30;3.47;;;;;;;6.04;100.00;95209.25;5030364;28;20056;-73
2021/01/29 01:48:23;;;;;;;3.85;3.20;;;;;;;6.07;100.00;95201.00;5017445;28;20041;-73
2021/01/29 01:50:50;;;;;;;3.58;2.95;;;;;;;6.06;100.00;95191.59;5021165;28;20483;-73
2021/01/29 01:53:22;;;;;;;4.97;2.97;;;;;;;6.08;100.00;95202.59;5027234;28;20046;-73
2021/01/29 01:55:56;;;;;;;5.20;3.20;;;;;;;6.07;100.00;95182.78;5041342;28;20483;-73
2021/01/29 01:58:23;;;;;;;4.43;3.43;;;;;;;6.07;100.00;95173.16;5026772;28;20042;-73
2021/01/29 02:00:49;;;;;;;3.50;2.95;;;;;;;6.06;100.00;95171.56;5027616;28;20382;-73
2021/01/29 02:03:19;;;;;;;5.10;3.30;;;;;;;6.05;100.00;95167.38;5020411;28;20045;-73
2021/01/29 02:05:45;;;;;;;5.85;2.72;;;;;;;6.08;100.00;95166.16;5022051;28;20046;-74
2021/01/29 02:08:15;;;;;;;4.70;3.55;;;;;;;6.05;100.00;95159.56;5026230;28;20046;-73
2021/01/29 02:10:41;;;;;;;4.38;3.47;;;;;;;6.06;100.00;95160.38;5026442;28;20041;-73
2021/01/29 02:13:09;;;;;;;3.47;3.17;;;;;;;6.05;100.00;95161.41;5026442;28;20490;-73
2021/01/29 02:15:38;;;;;;;3.88;3.00;;;;;;;6.02;100.00;95154.81;5024245;28;20038;-73
2021/01/29 02:18:16;;;;;;;3.30;3.00;;;;;;;6.03;100.00;95142.59;5022288;28;20029;-73
2021/01/29 02:21:19;;;;;;;4.45;3.40;;;;;;;6.01;100.00;95148.03;5022541;28;20490;-73
2021/01/29 02:23:55;;;;;;;4.60;3.45;;;;;;;6.00;100.00;95135.22;5019094;28;20044;-73
2021/01/29 02:26:33;;;;;;;6.32;3.30;;;;;;;5.99;100.00;95125.84;5028925;28;20037;-73
2021/01/29 02:29:26;;;;;;;3.67;2.95;;;;;;;5.99;100.00;95123.25;5028411;28;20376;-73
2021/01/29 02:32:30;;;;;;;4.97;3.03;;;;;;;5.99;100.00;95125.84;5024015;28;20432;-73
2021/01/29 02:35:10;;;;;;;5.00;3.20;;;;;;;5.98;100.00;95113.84;5025258;28;20044;-73
2021/01/29 02:38:13;;;;;;;3.30;3.00;;;;;;;6.00;100.00;95104.78;5002997;28;20037;-73
2021/01/29 02:41:07;;;;;;;3.13;2.83;;;;;;;6.00;100.00;95098.78;5025569;28;20493;-73
2021/01/29 02:44:05;;;;;;;5.22;2.90;;;;;;;6.00;100.00;95091.78;5011763;28;20041;-73
2021/01/29 02:46:49;;;;;;;3.00;2.60;;;;;;;6.01;100.00;95090.78;5009562;28;20136;-73
2021/01/29 02:49:39;;;;;;;3.78;2.60;;;;;;;6.01;100.00;95088.16;5032560;28;20033;-73
2021/01/29 02:52:13;;;;;;;3.72;2.60;;;;;;;6.01;100.00;95077.75;5014105;28;20034;-73
2021/01/29 02:54:55;;;;;;;3.58;3.10;;;;;;;6.02;100.00;95065.53;5018456;28;20053;-73
2021/01/29 02:57:48;;;;;;;3.47;2.78;;;;;;;6.03;100.00;95067.94;5006605;28;20045;-73
2021/01/29 03:00:35;;;;;;;4.43;2.97;;;;;;;6.05;100.00;95085.94;5017127;28;20029;-73
2021/01/29 03:03:15;;;;;;;3.05;2.60;;;;;;;6.03;100.00;95073.13;5022625;28;20041;-73
2021/01/29 03:05:56;;;;;;;3.45;2.28;;;;;;;6.06;100.00;95082.28;5018244;28;20049;-73
2021/01/29 03:08:30;;;;;;;2.53;2.33;;;;;;;6.05;100.00;95073.69;5020183;28;20045;-73
2021/01/29 03:11:01;;;;;;;3.35;2.33;;;;;;;6.07;100.00;95082.09;5026084;28;20045;-73
2021/01/29 03:13:43;;;;;;;4.13;2.45;;;;;;;6.08;100.00;95069.84;5027277;28;20049;-73
2021/01/29 03:16:36;;;;;;;3.33;2.50;;;;;;;6.07;100.00;95070.88;5023025;28;20386;-73
2021/01/29 03:19:31;;;;;;;4.20;2.30;;;;;;;6.07;100.00;95060.47;5026491;28;20049;-73
2021/01/29 03:22:02;;;;;;;2.67;1.90;;;;;;;6.03;100.00;95054.91;5011204;28;20041;-73
2021/01/29 03:24:36;;;;;;;2.63;2.10;;;;;;;6.06;100.00;95051.06;5022958;28;20478;-73
2021/01/29 03:27:29;;;;;;;2.75;2.10;;;;;;;6.07;100.00;95053.44;5017942;28;20048;-73
2021/01/29 03:30:04;;;;;;;2.67;2.10;;;;;;;6.06;100.00;95045.88;5017373;28;20058;-73
2021/01/29 03:32:32;;;;;;;4.38;1.83;;;;;;;6.04;100.00;95037.47;5020693;28;20041;-73
2021/01/29 03:35:12;;;;;;;3.75;2.20;;;;;;;6.04;100.00;95040.09;5023008;28;20045;-73
2021/01/29 03:37:53;;;;;;;4.35;2.42;;;;;;;6.02;100.00;95044.72;5019507;28;20038;-73
2021/01/29 03:40:20;;;;;;;2.03;1.80;;;;;;;6.02;100.00;95034.31;5028533;28;20041;-73
2021/01/29 03:43:34;;;;;;;2.63;1.92;;;;;;;6.02;100.00;95023.91;5030020;28;20046;-73
2021/01/29 03:46:18;;;;;;;3.10;2.03;;;;;;;5.99;100.00;95014.75;5011516;28;20474;-73
2021/01/29 03:48:50;;;;;;;;;;;;;;;5.99;100.00;95008.75;5024548;28;20494;-73
2021/01/29 03:51:29;;;;;;;3.22;2.10;;;;;;;5.98;100.00;94994.16;5024455;28;19916;-73
2021/01/29 03:54:21;;;;;;;2.65;1.90;;;;;;;5.96;100.00;94996.97;5024868;28;20405;-73
2021/01/29 03:56:59;;;;;;;3.90;2.22;;;;;;;5.96;100.00;94998.78;5027182;28;20482;-73
2021/01/29 03:59:52;;;;;;;2.95;2.00;;;;;;;5.94;100.00;94987.78;5018395;28;20037;-73
2021/01/29 04:02:52;;;;;;;3.30;2.28;;;;;;;5.93;100.00;94981.78;5022575;28;20049;-74
2021/01/29 04:05:23;;;;;;;3.15;2.00;;;;;;;5.90;100.00;94980.44;5021469;28;20050;-73
2021/01/29 04:07:51;;;;;;;2.08;1.88;;;;;;;5.90;100.00;94987.44;5024575;28;20041;-73
2021/01/29 04:10:20;;;;;;;7.72;3.42;;;;;;;5.91;100.00;94981.22;5026868;28;20045;-73
2021/01/29 04:13:01;;;;;;;12.55;7.10;;;;;;;5.95;100.00;94976.41;5025510;28;20049;-74
2021/01/29 04:15:35;;;;;;;53.05;27.17;;;;;;;5.99;100.00;94959.31;5020790;28;20037;-73
2021/01/29 04:18:11;;;;;;;55.05;26.20;;;;;;;6.02;100.00;94954.44;5020057;28;20033;-73
2021/01/29 04:20:44;;;;;;;34.92;18.02;;;;;;;6.06;100.00;94939.97;5018191;28;20394;-73
2021/01/29 04:23:18;;;;;;;33.95;17.30;;;;;;;6.09;100.00;94929.09;5027691;28;20056;-73
2021/01/29 04:25:54;;;;;;;7.95;4.05;;;;;;;6.12;100.00;94921.88;5024252;28;20060;-73
2021/01/29 04:28:23;;;;;;;20.60;13.70;;;;;;;6.15;100.00;94911.00;5019424;28;20060;-73
2021/01/29 04:30:53;;;;;;;4.03;1.90;;;;;;;6.14;100.00;94899.00;5021887;28;20052;-74
2021/01/29 04:33:43;;;;;;;1.83;1.30;;;;;;;6.19;100.00;94893.91;5022095;28;20034;-73
2021/01/29 04:36:14;;;;;;;2.08;1.10;;;;;;;6.18;100.00;94876.72;5022791;28;20056;-73
2021/01/29 04:38:45;;;;;;;1.20;0.63;;;;;;;6.20;100.00;94883.28;5026186;28;20487;-73
2021/01/29 04:41:30;;;;;;;2.90;1.30;;;;;;;6.22;100.00;94877.84;5022786;28;20045;-73
2021/01/29 04:44:23;;;;;;;2.85;1.00;;;;;;;6.22;100.00;94873.41;5024526;28;20033;-73
2021/01/29 04:47:05;;;;;;;1.65;1.52;;;;;;;6.21;100.00;94860.63;5028100;28;20044;-73
2021/01/29 04:49:34;;;;;;;1.50;1.35;;;;;;;6.21;100.00;94860.63;5023851;28;20037;-73
2021/01/29 04:52:01;;;;;;;3.00;1.00;;;;;;;6.22;100.00;94849.22;5023648;28;20402;-74
2021/01/29 04:54:27;;;;;;;2.03;1.67;;;;;;;6.22;100.00;94844.78;5031386;28;20041;-73
2021/01/29 04:57:16;;;;;;;2.40;1.30;;;;;;;6.22;100.00;94839.59;5028263;28;20061;-73
2021/01/29 05:00:01;;;;;;;1.38;1.13;;;;;;;6.23;100.00;94838.53;5010574;28;20506;-74
2021/01/29 05:03:06;;;;;;;1.27;0.90;;;;;;;6.21;100.00;94853.59;5026263;28;20037;-73
2021/01/29 05:06:10;;;;;;;1.42;0.57;;;;;;;6.19;100.00;94847.06;5020550;28;20049;-73
2021/01/29 05:09:03;;;;;;;1.23;0.63;;;;;;;6.19;100.00;94841.84;5030404;28;20033;-73
2021/01/29 05:12:05;;;;;;;0.93;0.80;;;;;;;6.19;100.00;94837.41;5014865;28;20036;-73
2021/01/29 05:14:52;;;;;;;0.65;0.60;;;;;;;6.20;100.00;94838.25;4974448;28;20057;-73
2021/01/29 05:17:37;;;;;;;1.05;0.60;;;;;;;6.19;100.00;94845.22;5025838;28;20029;-73
2021/01/29 05:20:22;;;;;;;;;;;;;;;6.17;100.00;94830.88;5023389;28;20044;-73
2021/01/29 05:22:57;;;;;;;1.17;0.50;;;;;;;6.16;100.00;94827.50;5027089;28;19909;-73
2021/01/29 05:25:29;;;;;;;0.52;0.52;;;;;;;6.15;100.00;94820.69;5024170;28;20473;-73
2021/01/29 05:28:23;;;;;;;0.50;0.40;;;;;;;6.16;100.00;94803.28;5027038;28;20045;-73
2021/01/29 05:30:56;;;;;;;0.50;0.35;;;;;;;6.15;100.00;94806.88;5027603;28;20053;-73
2021/01/29 05:33:25;;;;;;;0.98;0.45;;;;;;;6.15;100.00;94797.25;5023955;28;20049;-73
2021/01/29 05:35:57;;;;;;;1.20;0.70;;;;;;;6.14;100.00;94798.28;5028004;28;20053;-73
2021/01/29 05:38:45;;;;;;;1.20;0.63;;;;;;;6.13;100.00;94786.28;5026844;28;20049;-73
2021/01/29 05:41:30;;;;;;;0.85;0.50;;;;;;;6.13;100.00;94773.28;5030101;28;20033;-73
2021/01/29 05:44:21;;;;;;;1.55;0.52;;;;;;;6.10;100.00;94768.56;5025204;28;20049;-73
2021/01/29 05:47:15;;;;;;;1.33;0.57;;;;;;;6.08;100.00;94760.97;5025259;28;20037;-73
2021/01/29 05:50:00;;;;;;;0.93;0.68;;;;;;;6.06;100.00;94750.00;5025109;28;20406;-73
2021/01/29 05:52:44;;;;;;;1.33;0.80;;;;;;;6.03;100.00;94732.25;5023476;28;20038;-73
2021/01/29 05:56:05;;;;;;;1.13;0.63;;;;;;;6.02;100.00;94743.66;5022190;28;20049;-73
2021/01/29 05:58:50;;;;;;;2.90;0.82;;;;;;;5.98;100.00;94746.97;4997013;28;20507;-73
2021/01/29 06:01:24;;;;;;;1.35;0.65;;;;;;;5.94;100.00;94748.41;5025294;28;20056;-73
2021/01/29 06:04:29;;;;;;;0.90;0.90;;;;;;;5.92;100.00;94773.88;5031626;28;20470;-73
2021/01/29 06:07:07;;;;;;;1.17;0.80;;;;;;;5.90;100.00;94795.72;5028218;28;20053;-73
2021/01/29 06:09:48;;;;;;;2.47;0.95;;;;;;;5.89;100.00;94783.72;5020585;28;20029;-73
2021/01/29 06:12:41;;;;;;;1.48;1.13;;;;;;;5.89;100.00;94799.31;5021769;28;20045;-73
2021/01/29 06:15:19;;;;;;;3.05;1.30;;;;;;;5.88;100.00;94805.56;5024422;28;20041;-73
2021/01/29 06:18:04;;;;;;;2.17;1.40;;;;;;;5.91;100.00;94822.53;5013105;28;20045;-73
2021/01/29 06:21:04;;;;;;;1.48;0.88;;;;;;;5.98;100.00;94838.81;5020092;28;20042;-73
2021/01/29 06:24:02;;;;;;;0.60;0.45;;;;;;;6.20;100.00;94859.06;5011139;28;20037;-73
2021/01/29 06:26:40;;;;;;;0.73;0.52;;;;;;;6.42;100.00;94859.22;5013773;28;20077;-72
2021/01/29 06:29:15;;;;;;;0.98;0.30;;;;;;;6.56;100.00;94862.38;5020574;28;20482;-72
2021/01/29 06:32:27;;;;;;;1.13;0.40;;;;;;;6.67;100.00;94823.25;5022050;28;20041;-73
2021/01/29 06:35:02;;;;;;;0.30;0.22;;;;;;;6.72;100.00;94809.53;4986665;28;20458;-73
2021/01/29 06:38:02;;;;;;;0.20;0.20;;;;;;;6.75;100.00;94811.66;5024913;28;20045;-73
2021/01/29 06:40:37;;;;;;;0.30;0.28;;;;;;;6.77;100.00;94812.22;5020790;28;20050;-73
2021/01/29 06:43:22;;;;;;;0.40;0.15;;;;;;;6.77;100.00;94827.84;5028269;28;20034;-73
2021/01/29 06:46:16;;;;;;;0.10;0.10;;;;;;;6.79;100.00;94836.22;5027274;28;20037;-73
2021/01/29 06:49:13;;;;;;;0.35;0.30;;;;;;;6.78;100.00;94839.84;5024344;28;20033;-73
2021/01/29 06:52:06;;;;;;;0.30;0.30;;;;;;;6.79;100.00;94835.44;5016824;28;20044;-73
2021/01/29 06:54:51;;;;;;;1.08;0.55;;;;;;;6.75;100.00;94840.31;5014188;28;20061;-73
2021/01/29 06:57:22;;;;;;;;;;;;;;;6.71;96.48;94834.00;5020233;28;20057;-73
2021/01/29 06:59:57;;;;;;;0.73;0.40;;;;;;;6.68;99.30;94843.06;5026539;28;20286;-73
2021/01/29 07:03:02;;;;;;;0.40;0.40;;;;;;;6.66;98.72;94832.09;5026617;28;20037;-73
2021/01/29 07:05:58;;;;;;;0.33;0.30;;;;;;;6.62;98.92;94841.41;5023732;28;20053;-73
2021/01/29 07:08:59;;;;;;;0.47;0.20;;;;;;;6.61;99.88;94842.41;5028773;28;20044;-73
2021/01/29 07:11:35;;;;;;;1.10;0.40;;;;;;;6.59;100.00;94859.28;5025142;28;20501;-73
2021/01/29 07:14:30;;;;;;;0.43;0.30;;;;;;;6.58;100.00;94861.09;5023899;28;20033;-73
2021/01/29 07:16:56;;;;;;;;;;;;;;;6.57;100.00;94867.31;5029022;28;20038;-73
2021/01/29 07:19:41;;;;;;;0.70;0.43;;;;;;;6.58;100.00;94873.34;5027534;28;20003;-73
2021/01/29 07:22:32;;;;;;;0.50;0.50;;;;;;;6.56;100.00;94857.16;5016279;28;20037;-74
2021/01/29 07:25:24;;;;;;;0.50;0.50;;;;;;;6.57;100.00;94874.34;5026464;28;20045;-73
2021/01/29 07:28:07;;;;;;;1.55;0.60;;;;;;;6.57;100.00;94874.34;5005572;28;20041;-73
2021/01/29 07:30:42;;;;;;;0.60;0.60;;;;;;;6.60;100.00;94861.66;5022942;28;20056;-73
2021/01/29 07:33:30;;;;;;;0.73;0.60;;;;;;;6.62;100.00;94864.84;5022552;28;20466;-73
2021/01/29 07:36:28;;;;;;;0.73;0.60;;;;;;;6.69;99.06;94862.88;5006970;28;20037;-73
2021/01/29 07:39:24;;;;;;;0.60;0.60;;;;;;;6.74;98.64;94877.00;5018406;28;20068;-73
2021/01/29 07:42:08;;;;;;;0.63;0.40;;;;;;;6.80;97.14;94870.88;5019468;28;20474;-73
2021/01/29 07:44:37;;;;;;;1.10;0.63;;;;;;;6.85;97.75;94879.59;5021645;28;20050;-74
2021/01/29 07:47:33;;;;;;;1.77;0.47;;;;;;;6.88;97.41;94867.91;5027428;28;20397;-73
2021/01/29 07:50:17;;;;;;;0.60;0.60;;;;;;;6.89;97.71;94877.31;5024817;28;20037;-73
2021/01/29 07:53:10;;;;;;;1.17;1.08;;;;;;;6.87;97.64;94874.94;5028175;28;20053;-73
2021/01/29 07:56:13;;;;;;;2.70;1.17;;;;;;;6.85;97.12;94884.81;5015254;28;20060;-73
2021/01/29 07:58:56;;;;;;;2.38;1.27;;;;;;;6.84;98.30;94882.41;5021996;28;20482;-73
2021/01/29 08:01:54;;;;;;;1.13;0.95;;;;;;;6.82;97.09;94887.84;5011167;28;20036;-73
2021/01/29 08:04:35;;;;;;;1.15;1.00;;;;;;;6.82;97.60;94895.66;5013605;28;20041;-73
2021/01/29 08:07:15;;;;;;;1.02;0.93;;;;;;;6.83;98.08;94897.28;5017590;28;20050;-74
2021/01/29 08:09:54;;;;;;;0.60;0.60;;;;;;;6.86;97.75;94896.00;5025447;28;20041;-73
2021/01/29 08:12:33;;;;;;;1.90;0.30;;;;;;;6.87;97.55;94900.22;5009907;28;20029;-73
2021/01/29 08:15:27;;;;;;;2.03;0.88;;;;;;;6.92;98.21;94887.25;5022455;28;20042;-73
2021/01/29 08:18:08;;;;;;;0.65;0.50;;;;;;;6.94;97.86;94884.44;5011525;28;20045;-73
2021/01/29 08:21:05;;;;;;;0.60;0.50;;;;;;;6.94;97.94;94877.41;5009741;28;20045;-73
2021/01/29 08:23:48;;;;;;;1.38;0.50;;;;;;;6.98;97.61;94877.72;5023755;28;20036;-74
2021/01/29 08:26:39;;;;;;;0.47;0.40;;;;;;;7.04;96.68;94882.00;5023449;28;20053;-73
2021/01/29 08:29:34;;;;;;;0.57;0.43;;;;;;;7.15;95.24;94891.59;5020121;28;20045;-73
2021/01/29 08:32:15;;;;;;;1.20;0.57;;;;;;;7.30;94.65;94885.84;5021196;28;20446;-73
2021/01/29 08:34:49;;;;;;;0.88;0.80;;;;;;;7.49;95.34;94895.00;5022837;28;20151;-73
2021/01/29 08:37:42;;;;;;;1.20;1.10;;;;;;;7.59;94.47;94906.66;5021733;28;20161;-73
2021/01/29 08:40:29;;;;;;;2.20;0.70;;;;;;;7.56;92.47;94920.16;5023008;28;20046;-73
2021/01/29 08:42:59;;;;;;;2.28;0.80;;;;;;;7.46;93.13;94921.56;5024983;28;20402;-73
2021/01/29 08:45:28;;;;;;;2.22;0.95;;;;;;;7.39;93.22;94920.94;5024179;28;20504;-73
2021/01/29 08:48:09;;;;;;;1.58;1.48;;;;;;;7.31;92.29;94913.50;5017923;28;20046;-74
2021/01/29 08:50:44;;;;;;;2.67;2.28;;;;;;;7.24;93.26;94933.69;5024425;28;20034;-73
2021/01/29 08:53:16;;;;;;;4.32;2.60;;;;;;;7.22;93.35;94923.50;5025196;28;20038;-74
2021/01/29 08:56:01;;;;;;;2.45;1.90;;;;;;;7.25;90.18;94932.69;5020956;28;20034;-73
2021/01/29 08:58:43;;;;;;;13.93;5.97;;;;;;;7.29;92.34;94934.59;5021520;28;20037;-73
2021/01/29 09:01:25;;;;;;;4.07;3.30;;;;;;;7.31;91.54;94935.16;5020333;28;20065;-73
2021/01/29 09:04:08;;;;;;;5.00;3.33;;;;;;;7.28;91.65;94943.44;5021270;28;20394;-73
2021/01/29 09:06:41;;;;;;;2.38;1.75;;;;;;;7.29;91.66;94957.28;5024261;28;20390;-73
2021/01/29 09:09:16;;;;;;;2.63;1.00;;;;;;;7.30;89.45;94961.44;5023757;28;20478;-74
2021/01/29 09:11:48;;;;;;;1.20;0.93;;;;;;;7.41;90.96;94949.38;5022404;28;20033;-73
2021/01/29 09:14:26;;;;;;;3.28;1.48;;;;;;;7.50;89.45;94948.00;5019559;28;20061;-74
2021/01/29 09:17:04;;;;;;;3.60;1.10;;;;;;;7.76;87.02;94948.41;5014217;28;20041;-73
2021/01/29 09:19:32;;;;;;;1.27;0.90;;;;;;;8.12;89.22;94936.69;5019165;28;20470;-73
2021/01/29 09:22:36;;;;;;;3.08;1.05;;;;;;;8.47;83.53;94952.09;5022356;28;20041;-73
2021/01/29 09:25:10;;;;;;;1.90;1.00;;;;;;;8.57;83.59;94977.56;5021065;28;20057;-74
2021/01/29 09:28:02;;;;;;;2.75;0.90;;;;;;;8.45;80.69;94979.50;5026113;28;20050;-74
2021/01/29 09:30:48;;;;;;;2.38;0.98;;;;;;;8.28;81.79;94987.31;5026511;28;20498;-73
2021/01/29 09:33:21;;;;;;;5.03;1.80;;;;;;;8.11;82.03;94988.13;5029306;28;20045;-73
2021/01/29 09:36:14;;;;;;;4.40;1.58;;;;;;;8.00;80.29;94996.00;5026269;28;20044;-73
2021/01/29 09:39:09;;;;;;;1.98;0.80;;;;;;;7.89;82.22;94992.44;5004920;28;20062;-73
2021/01/29 09:41:47;;;;;;;2.83;0.75;;;;;;;7.81;82.47;94995.44;5025367;28;20394;-73
2021/01/29 09:44:22;;;;;;;2.75;0.65;;;;;;;7.70;84.98;94999.72;5026605;28;20036;-74
2021/01/29 09:46:54;;;;;;;0.90;0.80;;;;;;;7.59;84.89;95001.34;5026266;28;20410;-73
2021/01/29 09:49:27;;;;;;;1.80;0.70;;;;;;;7.51;85.49;95007.72;5032974;28;20053;-74
2021/01/29 09:52:01;;;;;;;2.63;0.90;;;;;;;7.50;87.02;95019.19;5008216;28;20044;-73
2021/01/29 09:54:42;;;;;;;1.98;0.88;;;;;;;7.50;86.56;95024.41;5024569;28;20038;-73
2021/01/29 09:57:22;;;;;;;2.03;1.10;;;;;;;7.57;87.27;95024.28;5007324;28;20048;-73
2021/01/29 10:00:04;;;;;;;2.63;1.02;;;;;;;7.65;85.41;94999.63;5024974;28;20034;-73
2021/01/29 10:03:03;;;;;;;1.88;0.95;;;;;;;7.91;86.90;95012.06;5027603;28;20038;-73
2021/01/29 10:05:36;;;;;;;5.25;1.02;;;;;;;8.28;86.71;95023.88;5008873;28;20033;-73
2021/01/29 10:08:09;;;;;;;5.07;0.90;;;;;;;8.46;84.63;95008.00;5026273;28;20397;-73
2021/01/29 10:10:46;;;;;;;3.03;1.00;;;;;;;8.43;84.24;95025.97;5025800;28;20057;-74
2021/01/29 10:13:36;;;;;;;3.42;0.82;;;;;;;8.30;84.50;95029.66;5027429;28;20536;-73
2021/01/29 10:16:18;;;;;;;3.25;0.95;;;;;;;8.20;84.47;95039.94;5010619;28;20038;-73
2021/01/29 10:18:59;;;;;;;1.83;0.77;;;;;;;8.12;82.39;95039.28;5022564;28;20045;-73
2021/01/29 10:21:57;;;;;;;2.45;0.88;;;;;;;8.28;84.11;95039.56;5023179;28;20069;-73
2021/01/29 10:24:58;;;;;;;4.10;0.90;;;;;;;8.30;82.93;95043.50;5021859;28;20053;-73
2021/01/29 10:27:45;;;;;;;4.05;1.10;;;;;;;8.30;80.88;95051.34;5019357;28;20072;-73
2021/01/29 10:30:21;;;;;;;2.92;0.90;;;;;;;8.39;83.45;95049.13;5026579;28;20046;-73
2021/01/29 10:33:05;;;;;;;6.10;1.10;;;;;;;8.45;78.89;95035.13;5019076;28;20076;-73
2021/01/29 10:35:36;;;;;;;;;;;;;;;8.63;79.28;95030.66;5026389;28;20065;-73
2021/01/29 10:38:26;;;;;;;6.25;1.20;;;;;;;8.60;78.06;95021.50;5028462;28;20350;-73
2021/01/29 10:41:22;;;;;;;4.82;1.40;;;;;;;8.45;73.95;95024.69;5028152;28;20030;-73
2021/01/29 10:44:09;;;;;;;4.55;1.13;;;;;;;8.36;78.01;95048.78;5030027;28;20034;-73
2021/01/29 10:47:03;;;;;;;6.15;1.83;;;;;;;8.22;76.10;95045.72;5020921;28;20056;-73
2021/01/29 10:49:47;;;;;;;3.40;1.10;;;;;;;8.15;77.94;95040.66;5021948;28;20045;-73
2021/01/29 10:52:38;;;;;;;5.10;1.20;;;;;;;8.07;76.87;95051.50;5024033;28;20057;-73
2021/01/29 10:55:15;;;;;;;5.57;1.40;;;;;;;7.96;77.99;95062.75;5010829;28;20478;-73
2021/01/29 10:58:06;;;;;;;;;;;;;;;7.90;75.50;95075.75;5012548;28;20041;-73
2021/01/29 11:00:36;;;;;;;5.63;1.52;;;;;;;7.87;79.86;95081.44;5024834;28;19920;-73
2021/01/29 11:03:09;;;;;;;4.28;1.25;;;;;;;7.80;78.17;95077.38;5022608;28;20418;-73
2021/01/29 11:05:40;;;;;;;5.70;1.63;;;;;;;7.72;79.39;95073.31;5028319;28;20073;-73
2021/01/29 11:08:24;;;;;;;4.53;1.52;;;;;;;7.65;79.20;95088.34;5027993;28;20478;-73
2021/01/29 11:11:26;;;;;;;7.57;1.40;;;;;;;7.59;79.30;95099.69;5025702;28;20036;-73
2021/01/29 11:14:00;;;;;;;3.08;1.10;;;;;;;7.52;80.22;95102.44;5023020;28;20038;-74
2021/01/29 11:16:44;;;;;;;1.17;0.70;;;;;;;7.43;78.90;95088.97;5023883;28;20045;-73
2021/01/29 11:19:20;;;;;;;1.15;0.75;;;;;;;7.35;78.38;95078.91;5019703;28;20034;-73
2021/01/29 11:22:07;;;;;;;2.92;1.00;;;;;;;7.37;78.71;95092.50;5023142;28;20403;-74
2021/01/29 11:24:36;;;;;;;1.63;0.80;;;;;;;7.34;79.75;95068.69;5014563;28;20053;-73
2021/01/29 11:27:35;;;;;;;3.05;1.17;;;;;;;7.30;78.41;95079.56;5019858;28;20050;-73
2021/01/29 11:30:16;;;;;;;2.28;0.90;;;;;;;7.24;78.59;95084.91;5020785;28;20049;-73
2021/01/29 11:32:51;;;;;;;3.08;0.80;;;;;;;7.21;79.70;95082.78;5023709;28;20038;-73
2021/01/29 11:35:38;;;;;;;3.58;1.25;;;;;;;7.19;79.63;95083.00;5017703;28;20060;-74
2021/01/29 11:38:14;;;;;;;6.20;1.52;;;;;;;7.21;79.80;95093.22;5024865;28;20030;-73
2021/01/29 11:40:57;;;;;;;4.45;1.02;;;;;;;7.19;78.80;95080.41;5006494;28;20052;-73
2021/01/29 11:43:38;;;;;;;6.90;1.73;;;;;;;7.26;79.11;95085.47;5022505;28;20041;-74
2021/01/29 11:46:22;;;;;;;1.95;1.20;;;;;;;7.41;78.50;95079.78;5016909;28;20041;-73
2021/01/29 11:48:58;;;;;;;4.40;1.20;;;;;;;7.55;78.57;95070.66;5003448;28;20045;-73
2021/01/29 11:51:38;;;;;;;4.10;0.93;;;;;;;7.69;76.36;95069.38;5023743;28;20050;-73
2021/01/29 11:54:11;;;;;;;1.67;1.08;;;;;;;7.96;77.62;95058.38;5022908;28;20038;-73
2021/01/29 11:57:15;;;;;;;2.30;0.90;;;;;;;8.40;75.60;95042.06;5024802;28;20064;-73
2021/01/29 12:00:10;;;;;;;2.65;0.63;;;;;;;8.59;76.44;95035.59;4967445;28;20085;-73
2021/01/29 12:03:26;;;;;;;1.58;0.70;;;;;;;8.82;74.96;95037.22;5020288;28;20045;-73
2021/01/29 12:06:01;;;;;;;2.45;0.90;;;;;;;8.85;76.07;95030.72;5016300;28;20060;-74
2021/01/29 12:08:48;;;;;;;1.67;0.80;;;;;;;8.80;73.83;95035.88;5024262;28;20103;-74
2021/01/29 12:11:32;;;;;;;2.28;1.08;;;;;;;8.70;74.25;95026.09;5023218;28;20073;-73
2021/01/29 12:14:05;;;;;;;2.13;0.90;;;;;;;8.61;74.58;95033.53;5027955;28;20046;-74
2021/01/29 12:16:35;;;;;;;3.03;0.98;;;;;;;8.52;75.59;95034.97;5027729;28;20045;-73
2021/01/29 12:19:05;;;;;;;2.72;1.00;;;;;;;8.39;75.51;95037.88;5020311;28;20038;-74
2021/01/29 12:21:45;;;;;;;8.52;1.10;;;;;;;8.29;74.62;95023.66;5023429;28;20049;-73
2021/01/29 12:24:32;;;;;;;3.88;1.30;;;;;;;8.24;74.71;95009.72;5025047;28;20042;-73
2021/01/29 12:27:06;;;;;;;3.60;1.08;;;;;;;8.17;75.53;95011.69;5026604;28;20053;-73
2021/01/29 12:30:01;;;;;;;3.58;0.98;;;;;;;8.07;76.15;95007.88;5022641;28;20500;-73
2021/01/29 12:32:52;;;;;;;5.57;1.23;;;;;;;7.99;76.81;95005.66;5020589;28;20064;-73
2021/01/29 12:35:52;;;;;;;5.30;1.30;;;;;;;7.99;77.75;95000.44;5019983;28;20042;-73
2021/01/29 12:38:36;;;;;;;2.70;0.90;;;;;;;8.03;77.35;95017.22;5020121;28;20042;-73
2021/01/29 12:41:13;;;;;;;5.30;1.20;;;;;;;8.03;76.59;95025.06;5023269;28;20045;-73